» Metar & Tafor

27 Agustus 2020
METAR
Pukul : 12.00 UTC
Isi :

METAR WAGI 311200Z 00000KT 8000 BKN014 26/24 Q1009 NOSIG=


10 Juni 2019
TAFOR
Pukul : 06 - 18 UTC
Isi :

TAF WAGI 310500Z 3106/3118 00000KT 8000 BKN014 TEMPO 3108/3110 4000 -RA BKN014CB=


Hal: << First | < Prev | 1 | Next > | Last >>